createdAt,value
2023-02-14T00:01:27.954Z,103238.47
2023-02-14T00:04:00.901Z,103229.22
2023-02-14T00:06:32.788Z,103233.38
2023-02-14T00:09:03.287Z,103234.88
2023-02-14T00:11:33.135Z,103226.41
2023-02-14T00:14:15.753Z,103234.13
2023-02-14T00:16:48.238Z,103226.44
2023-02-14T00:19:20.216Z,103225.25
2023-02-14T00:21:50.608Z,103228.38
2023-02-14T00:24:23.144Z,103227.78
2023-02-14T00:26:54.187Z,103223.66
2023-02-14T00:29:26.147Z,103219.53
2023-02-14T00:31:59.263Z,103228.06
2023-02-14T00:34:29.978Z,103229.28
2023-02-14T00:37:00.589Z,103222.50
2023-02-14T00:39:30.481Z,103224.59
2023-02-14T00:42:00.567Z,103220.44
2023-02-14T00:44:30.363Z,103222.53
2023-02-14T00:47:02.883Z,103232.69
2023-02-14T00:49:32.939Z,103224.03
2023-02-14T00:52:03.098Z,103227.13
2023-02-14T00:54:33.018Z,103232.75
2023-02-14T00:57:02.787Z,103231.69
2023-02-14T00:59:32.839Z,103225.28
2023-02-14T01:02:05.802Z,103232.31
2023-02-14T01:04:35.992Z,103231.25
2023-02-14T01:07:05.767Z,103236.63
2023-02-14T01:09:36.004Z,103239.31
2023-02-14T01:12:07.088Z,103232.53
2023-02-14T01:14:37.004Z,103241.88
2023-02-14T01:17:09.540Z,103238.56
2023-02-14T01:19:42.523Z,103236.31
2023-02-14T01:22:12.321Z,103235.09
2023-02-14T01:24:42.171Z,103228.50
2023-02-14T01:27:12.065Z,103224.56
2023-02-14T01:29:41.895Z,103231.00
2023-02-14T01:32:14.485Z,103227.69
2023-02-14T01:34:44.473Z,103224.59
2023-02-14T01:37:14.306Z,103224.22
2023-02-14T01:39:47.124Z,103231.06
2023-02-14T01:42:16.979Z,103223.22
2023-02-14T01:45:02.323Z,103221.19
2023-02-14T01:47:40.011Z,103224.88
2023-02-14T01:50:14.245Z,103213.53
2023-02-14T01:52:50.005Z,103215.63
2023-02-14T01:55:23.848Z,103217.06
2023-02-14T01:58:02.678Z,103211.31
2023-02-14T02:00:44.880Z,103213.38
2023-02-14T02:03:18.984Z,103210.91
2023-02-14T02:05:51.579Z,103208.44
2023-02-14T02:08:22.376Z,103210.50
2023-02-14T02:10:52.221Z,103210.50
2023-02-14T02:13:23.886Z,103209.06
2023-02-14T02:16:10.859Z,103211.38
2023-02-14T02:18:55.551Z,103206.41
2023-02-14T02:21:56.288Z,103207.44
2023-02-14T02:24:35.510Z,103206.00
2023-02-14T02:27:21.971Z,103197.75
2023-02-14T02:30:30.572Z,103200.66
2023-02-14T02:33:27.647Z,103188.25
2023-02-14T02:36:34.935Z,103180.41
2023-02-14T02:39:18.749Z,103186.16
2023-02-14T02:41:57.832Z,103180.38
2023-02-14T02:44:37.739Z,103175.84
2023-02-14T02:47:12.333Z,103179.13
2023-02-14T02:50:03.066Z,103181.59
2023-02-14T02:52:58.275Z,103177.25
2023-02-14T02:55:53.795Z,103177.25
2023-02-14T02:58:23.634Z,103173.75
2023-02-14T03:00:56.542Z,103169.63
2023-02-14T03:03:41.674Z,103172.13
2023-02-14T03:06:12.118Z,103176.25
2023-02-14T03:08:44.845Z,103175.06
2023-02-14T03:11:16.630Z,103176.28
2023-02-14T03:14:03.302Z,103184.78
2023-02-14T03:16:42.440Z,103178.19
2023-02-14T03:19:56.456Z,103185.03
2023-02-14T03:22:40.689Z,103173.03
2023-02-14T03:25:32.064Z,103176.75
2023-02-14T03:28:13.732Z,103170.78
2023-02-14T03:30:53.276Z,103173.88
2023-02-14T03:33:28.871Z,103174.91
2023-02-14T03:36:05.192Z,103181.34
2023-02-14T03:38:39.472Z,103187.16
2023-02-14T03:41:17.249Z,103187.97
2023-02-14T03:43:52.458Z,103192.94
2023-02-14T03:46:27.426Z,103190.47
2023-02-14T03:48:59.239Z,103192.31
2023-02-14T03:51:34.423Z,103187.16
2023-02-14T03:54:07.665Z,103185.53
2023-02-14T03:56:45.266Z,103190.06
2023-02-14T03:59:18.411Z,103183.88
2023-02-14T04:01:53.357Z,103185.91
2023-02-14T04:04:28.216Z,103183.44
2023-02-14T04:06:58.457Z,103188.00
2023-02-14T04:09:28.219Z,103190.06
2023-02-14T04:12:00.734Z,103185.75
2023-02-14T04:14:30.918Z,103181.38
2023-02-14T04:17:13.194Z,103195.44
2023-02-14T04:19:42.999Z,103189.03
2023-02-14T04:22:13.377Z,103182.63
2023-02-14T04:24:43.278Z,103182.84
2023-02-14T04:27:17.631Z,103184.72
2023-02-14T04:29:49.655Z,103177.25
2023-02-14T04:32:21.608Z,103173.53
2023-02-14T04:34:52.315Z,103175.19
2023-02-14T04:37:23.268Z,103177.88
2023-02-14T04:39:53.158Z,103175.19
2023-02-14T04:42:25.923Z,103173.53
2023-02-14T04:44:55.718Z,103171.88
2023-02-14T04:47:25.807Z,103173.97
2023-02-14T04:49:56.032Z,103161.97
2023-02-14T04:52:25.938Z,103159.50
2023-02-14T04:54:55.834Z,103157.44
2023-02-14T04:57:28.661Z,103157.03
2023-02-14T04:59:58.538Z,103153.53
2023-02-14T05:02:28.749Z,103150.03
2023-02-14T05:04:58.525Z,103157.88
2023-02-14T05:07:28.599Z,103156.22
2023-02-14T05:09:58.549Z,103155.41
2023-02-14T05:12:30.969Z,103154.56
2023-02-14T05:15:01.070Z,103147.97
2023-02-14T05:17:31.058Z,103152.72
2023-02-14T05:20:00.861Z,103150.03
2023-02-14T05:22:30.648Z,103148.38
2023-02-14T05:25:00.468Z,103149.41
2023-02-14T05:27:32.984Z,103145.50
2023-02-14T05:30:02.977Z,103141.56
2023-02-14T05:32:33.015Z,103135.59
2023-02-14T05:35:02.871Z,103144.69
2023-02-14T05:37:32.778Z,103136.00
2023-02-14T05:40:02.680Z,103138.06
2023-02-14T05:42:35.128Z,103131.03
2023-02-14T05:45:07.077Z,103139.31
2023-02-14T05:47:39.713Z,103138.88
2023-02-14T05:50:11.036Z,103131.03
2023-02-14T05:52:41.611Z,103126.94
2023-02-14T05:55:20.408Z,103126.50
2023-02-14T05:57:52.901Z,103131.03
2023-02-14T06:00:24.737Z,103131.69
2023-02-14T06:02:54.596Z,103136.63
2023-02-14T06:05:24.885Z,103138.88
2023-02-14T06:07:54.629Z,103142.22
2023-02-14T06:10:27.619Z,103141.38
2023-02-14T06:13:00.260Z,103142.22
2023-02-14T06:15:30.356Z,103145.94
2023-02-14T06:18:01.087Z,103141.38
2023-02-14T06:20:31.055Z,103155.63
2023-02-14T06:23:01.157Z,103147.97
2023-02-14T06:25:31.052Z,103144.69
2023-02-14T06:28:03.772Z,103145.09
2023-02-14T06:30:33.712Z,103154.16
2023-02-14T06:33:05.578Z,103163.66
2023-02-14T06:35:35.425Z,103161.38
2023-02-14T06:38:05.325Z,103167.56
2023-02-14T06:40:35.518Z,103168.00
2023-02-14T06:43:08.261Z,103160.78
2023-02-14T06:45:38.384Z,103168.22
2023-02-14T06:48:08.810Z,103174.78
2023-02-14T06:50:38.709Z,103176.88
2023-02-14T06:53:08.821Z,103175.44
2023-02-14T06:55:38.857Z,103175.63
2023-02-14T06:58:11.237Z,103178.50
2023-02-14T07:00:41.138Z,103179.97
2023-02-14T07:03:11.574Z,103178.50
2023-02-14T07:05:41.481Z,103179.34
2023-02-14T07:08:11.797Z,103166.13
2023-02-14T07:10:41.829Z,103167.75
2023-02-14T07:13:14.405Z,103173.13
2023-02-14T07:15:44.313Z,103166.94
2023-02-14T07:18:14.063Z,103167.97
2023-02-14T07:20:45.091Z,103160.56
2023-02-14T07:23:14.914Z,103165.09
2023-02-14T07:25:45.125Z,103173.34
2023-02-14T07:28:17.773Z,103158.31
2023-02-14T07:30:47.829Z,103169.88
2023-02-14T07:33:17.706Z,103169.22
2023-02-14T07:35:47.774Z,103164.91
2023-02-14T07:38:17.537Z,103154.97
2023-02-14T07:40:47.316Z,103158.50
2023-02-14T07:43:20.279Z,103164.06
2023-02-14T07:45:50.060Z,103170.03
2023-02-14T07:48:20.446Z,103165.28
2023-02-14T07:50:50.921Z,103164.63
2023-02-14T07:53:20.775Z,103164.00
2023-02-14T07:55:52.143Z,103162.88
2023-02-14T07:58:24.934Z,103165.50
2023-02-14T08:00:54.801Z,103171.53
2023-02-14T08:03:24.701Z,103168.47
2023-02-14T08:05:57.408Z,103164.13
2023-02-14T08:08:28.957Z,103168.91
2023-02-14T08:10:59.502Z,103167.91
2023-02-14T08:13:32.183Z,103167.34
2023-02-14T08:16:09.817Z,103165.19
2023-02-14T08:18:41.927Z,103163.25
2023-02-14T08:21:13.936Z,103160.09
2023-02-14T08:23:43.727Z,103156.34
2023-02-14T08:26:13.797Z,103160.56
2023-02-14T08:28:46.401Z,103164.28
2023-02-14T08:31:21.333Z,103155.19
2023-02-14T08:33:56.692Z,103163.84
2023-02-14T08:36:26.475Z,103156.81
2023-02-14T08:38:57.899Z,103158.22
2023-02-14T08:41:28.025Z,103161.31
2023-02-14T08:44:12.217Z,103161.31
2023-02-14T08:46:42.166Z,103167.06
2023-02-14T08:49:12.759Z,103164.13
2023-02-14T08:51:42.519Z,103164.28
2023-02-14T08:54:12.289Z,103163.25
2023-02-14T08:56:42.499Z,103158.91
2023-02-14T08:59:14.909Z,103161.75
2023-02-14T09:01:44.787Z,103166.91
2023-02-14T09:04:14.977Z,103161.28
2023-02-14T09:06:44.904Z,103157.34
2023-02-14T09:09:14.888Z,103156.03
2023-02-14T09:11:47.761Z,103160.31
2023-02-14T09:14:21.183Z,103147.16
2023-02-14T09:16:51.067Z,103146.41
2023-02-14T09:19:21.038Z,103142.34
2023-02-14T09:21:50.918Z,103132.28
2023-02-14T09:24:20.758Z,103136.41
2023-02-14T09:26:50.843Z,103132.41
2023-02-14T09:29:23.394Z,103121.75
2023-02-14T09:31:55.789Z,103122.81
2023-02-14T09:34:25.996Z,103116.88
2023-02-14T09:36:56.032Z,103123.94
2023-02-14T09:39:26.125Z,103114.91
2023-02-14T09:42:20.099Z,103117.94
2023-02-14T09:44:57.626Z,103116.06
2023-02-14T09:47:37.179Z,103110.91
2023-02-14T09:50:09.304Z,103109.38
2023-02-14T09:52:39.141Z,103104.03
2023-02-14T09:55:16.741Z,103110.50
2023-02-14T09:58:01.923Z,103108.47
2023-02-14T10:00:40.580Z,103107.03
2023-02-14T10:03:31.803Z,103106.66
2023-02-14T10:06:06.310Z,103108.28
2023-02-14T10:08:50.248Z,103106.09
2023-02-14T10:11:23.297Z,103107.34
2023-02-14T10:13:58.147Z,103108.81
2023-02-14T10:16:35.348Z,103101.13
2023-02-14T10:19:08.974Z,103107.88
2023-02-14T10:21:45.506Z,103102.03
2023-02-14T10:24:20.730Z,103098.44
2023-02-14T10:26:52.777Z,103101.28
2023-02-14T10:29:23.170Z,103097.59
2023-02-14T10:32:01.137Z,103100.69
2023-02-14T10:34:40.530Z,103098.97
2023-02-14T10:37:26.048Z,103100.69
2023-02-14T10:40:21.212Z,103094.75
2023-02-14T10:43:00.657Z,103091.69
2023-02-14T10:45:39.205Z,103089.13
2023-02-14T10:48:22.291Z,103083.81
2023-02-14T10:50:59.981Z,103074.75
2023-02-14T10:53:38.411Z,103072.41
2023-02-14T10:56:12.242Z,103071.22
2023-02-14T10:58:44.216Z,103075.09
2023-02-14T11:01:18.571Z,103070.84
2023-02-14T11:03:58.704Z,103066.28
2023-02-14T11:06:28.523Z,103063.41
2023-02-14T11:08:58.719Z,103064.00
2023-02-14T11:11:35.086Z,103049.97
2023-02-14T11:14:22.274Z,103048.91
2023-02-14T11:16:54.619Z,103044.94
2023-02-14T11:19:29.572Z,103051.53
2023-02-14T11:22:01.268Z,103042.59
2023-02-14T11:24:32.961Z,103044.84
2023-02-14T11:27:05.594Z,103040.53
2023-02-14T11:29:40.065Z,103032.41
2023-02-14T11:32:12.380Z,103043.88
2023-02-14T11:34:48.379Z,103039.00
2023-02-14T11:37:29.406Z,103035.72
2023-02-14T11:40:01.492Z,103034.16
2023-02-14T11:42:43.574Z,103035.53
2023-02-14T11:45:32.651Z,103031.47
2023-02-14T11:48:34.913Z,103024.44
2023-02-14T11:51:14.106Z,103008.41
2023-02-14T11:53:49.198Z,103009.78
2023-02-14T11:56:21.375Z,103006.31
2023-02-14T11:58:56.037Z,103001.34
2023-02-14T12:01:28.990Z,103000.03
2023-02-14T12:04:02.250Z,102998.97
2023-02-14T12:06:38.484Z,102998.97
2023-02-14T12:09:16.641Z,102988.09
2023-02-14T12:11:58.496Z,102986.72
2023-02-14T12:14:33.239Z,102983.50
2023-02-14T12:17:09.989Z,102980.50
2023-02-14T12:19:48.668Z,102980.25
2023-02-14T12:22:27.460Z,102972.88
2023-02-14T12:25:05.594Z,102960.66
2023-02-14T12:27:46.921Z,102968.28
2023-02-14T12:30:19.796Z,102962.03
2023-02-14T12:32:52.505Z,102956.56
2023-02-14T12:35:33.904Z,102954.41
2023-02-14T12:38:13.771Z,102946.81
2023-02-14T12:40:54.307Z,102944.63
2023-02-14T12:43:45.355Z,102945.13
2023-02-14T12:46:31.766Z,102937.53
2023-02-14T12:49:19.072Z,102933.72
2023-02-14T12:51:57.335Z,102942.16
2023-02-14T12:54:45.992Z,102928.28
2023-02-14T12:57:30.638Z,102927.72
2023-02-14T13:00:12.662Z,102935.09
2023-02-14T13:02:57.826Z,102931.00
2023-02-14T13:05:37.445Z,102920.41
2023-02-14T13:08:20.514Z,102913.59
2023-02-14T13:11:03.469Z,102920.66
2023-02-14T13:13:45.930Z,102914.69
2023-02-14T13:16:22.274Z,102902.13
2023-02-14T13:18:57.068Z,102908.69
2023-02-14T13:21:29.803Z,102901.91
2023-02-14T13:24:06.779Z,102895.63
2023-02-14T13:26:43.415Z,102891.78
2023-02-14T13:29:16.531Z,102895.09
2023-02-14T13:31:47.167Z,102896.72
2023-02-14T13:34:28.529Z,102885.81
2023-02-14T13:37:01.070Z,102880.38
2023-02-14T13:39:38.493Z,102885.81
2023-02-14T13:42:12.004Z,102877.38
2023-02-14T13:44:46.533Z,102874.91
2023-02-14T13:47:23.028Z,102878.19
2023-02-14T13:49:57.646Z,102881.97
2023-02-14T13:52:45.223Z,102871.41
2023-02-14T13:55:22.090Z,102875.47
2023-02-14T13:58:06.992Z,102868.38
2023-02-14T14:00:42.916Z,102872.75
2023-02-14T14:03:16.963Z,102857.47
2023-02-14T14:06:02.919Z,102861.88
2023-02-14T14:08:44.225Z,102858.03
2023-02-14T14:11:30.406Z,102859.09
2023-02-14T14:14:05.308Z,102856.38
2023-02-14T14:16:37.290Z,102844.41
2023-02-14T14:19:30.009Z,102849.31
2023-02-14T14:22:05.653Z,102846.59
2023-02-14T14:24:36.927Z,102843.31
2023-02-14T14:27:15.175Z,102846.03
2023-02-14T14:29:52.849Z,102833.50
2023-02-14T14:32:28.235Z,102835.09
2023-02-14T14:35:00.142Z,102833.72
2023-02-14T14:37:31.608Z,102830.72
2023-02-14T14:40:03.231Z,102821.97
2023-02-14T14:42:39.045Z,102818.72
2023-02-14T14:45:23.776Z,102820.63
2023-02-14T14:47:56.266Z,102818.66
2023-02-14T14:50:29.520Z,102821.38
2023-02-14T14:53:03.641Z,102817.00
2023-02-14T14:55:36.484Z,102815.34
2023-02-14T14:58:09.026Z,102809.06
2023-02-14T15:00:42.719Z,102804.66
2023-02-14T15:03:18.811Z,102798.66
2023-02-14T15:05:51.186Z,102780.91
2023-02-14T15:08:27.947Z,102791.81
2023-02-14T15:11:02.414Z,102786.69
2023-02-14T15:13:49.952Z,102787.47
2023-02-14T15:16:25.173Z,102784.47
2023-02-14T15:19:00.112Z,102781.97
2023-02-14T15:21:31.555Z,102767.00
2023-02-14T15:24:01.567Z,102767.81
2023-02-14T15:26:35.904Z,102774.06
2023-02-14T15:29:07.967Z,102774.88
2023-02-14T15:31:43.695Z,102767.81
2023-02-14T15:34:15.137Z,102765.88
2023-02-14T15:36:52.251Z,102766.69
2023-02-14T15:39:25.733Z,102775.97
2023-02-14T15:41:56.638Z,102770.81
2023-02-14T15:44:29.116Z,102769.16
2023-02-14T15:47:05.663Z,102770.84
2023-02-14T15:49:38.545Z,102773.84
2023-02-14T15:52:09.920Z,102774.97
2023-02-14T15:54:41.924Z,102771.13
2023-02-14T15:57:25.969Z,102778.78
2023-02-14T15:59:56.816Z,102769.28
2023-02-14T16:02:38.265Z,102780.50
2023-02-14T16:05:12.161Z,102780.50
2023-02-14T16:07:44.012Z,102781.59
2023-02-14T16:10:24.446Z,102779.47
2023-02-14T16:13:00.082Z,102781.63
2023-02-14T16:15:31.925Z,102783.31
2023-02-14T16:18:08.303Z,102779.50
2023-02-14T16:20:47.451Z,102780.34
2023-02-14T16:23:23.169Z,102783.31
2023-02-14T16:25:53.926Z,102779.56
2023-02-14T16:28:24.542Z,102783.91
2023-02-14T16:30:58.702Z,102781.47
2023-02-14T16:33:33.171Z,102779.34
2023-02-14T16:36:09.597Z,102775.56
2023-02-14T16:38:45.457Z,102779.13
2023-02-14T16:41:24.215Z,102785.13
2023-02-14T16:43:54.497Z,102780.25
2023-02-14T16:46:26.362Z,102775.09
2023-02-14T16:48:59.484Z,102782.19
2023-02-14T16:51:32.421Z,102793.81
2023-02-14T16:54:03.964Z,102795.19
2023-02-14T16:56:40.243Z,102796.81
2023-02-14T16:59:11.004Z,102794.63
2023-02-14T17:01:41.120Z,102796.81
2023-02-14T17:04:13.655Z,102796.53
2023-02-14T17:06:48.906Z,102802.47
2023-02-14T17:09:20.954Z,102800.28
2023-02-14T17:11:53.898Z,102810.56
2023-02-14T17:14:27.357Z,102806.75
2023-02-14T17:16:58.106Z,102802.91
2023-02-14T17:19:34.134Z,102803.44
2023-02-14T17:22:04.609Z,102805.03
2023-02-14T17:24:34.762Z,102811.00
2023-02-14T17:27:04.603Z,102815.31
2023-02-14T17:29:34.473Z,102814.19
2023-02-14T17:32:04.348Z,102820.72
2023-02-14T17:34:37.390Z,102820.13
2023-02-14T17:37:07.273Z,102827.69
2023-02-14T17:39:37.098Z,102827.91
2023-02-14T17:42:07.380Z,102827.88
2023-02-14T17:44:37.683Z,102826.47
2023-02-14T17:47:07.835Z,102824.81
2023-02-14T17:49:40.345Z,102825.25
2023-02-14T17:52:10.481Z,102821.41
2023-02-14T17:54:41.176Z,102818.31
2023-02-14T17:57:12.658Z,102825.03
2023-02-14T17:59:42.890Z,102815.25
2023-02-14T18:02:15.023Z,102817.09
2023-02-14T18:04:48.832Z,102816.75
2023-02-14T18:07:19.270Z,102823.22
2023-02-14T18:09:49.413Z,102812.56
2023-02-14T18:12:19.316Z,102811.97
2023-02-14T18:14:49.475Z,102813.47
2023-02-14T18:17:19.639Z,102814.75
2023-02-14T18:19:52.219Z,102809.31
2023-02-14T18:22:25.229Z,102809.22
2023-02-14T18:24:58.960Z,102810.81
2023-02-14T18:27:29.108Z,102807.53
2023-02-14T18:29:59.002Z,102805.91
2023-02-14T18:32:28.923Z,102817.25
2023-02-14T18:35:01.460Z,102810.19
2023-02-14T18:37:31.350Z,102804.22
2023-02-14T18:40:01.405Z,102811.78
2023-02-14T18:42:31.658Z,102801.41
2023-02-14T18:45:01.506Z,102804.03
2023-02-14T18:47:31.330Z,102806.66
2023-02-14T18:50:03.785Z,102796.03
2023-02-14T18:52:33.981Z,102797.88
2023-02-14T18:55:03.839Z,102795.59
2023-02-14T18:57:34.204Z,102798.25
2023-02-14T19:00:06.748Z,102795.47
2023-02-14T19:02:37.285Z,102796.47
2023-02-14T19:05:10.781Z,102794.50
2023-02-14T19:07:40.647Z,102785.72
2023-02-14T19:10:12.208Z,102789.22
2023-02-14T19:12:42.134Z,102789.09
2023-02-14T19:15:13.021Z,102777.63
2023-02-14T19:17:42.970Z,102786.47
2023-02-14T19:20:17.034Z,102779.94
2023-02-14T19:22:46.864Z,102776.34
2023-02-14T19:25:16.867Z,102775.22
2023-02-14T19:27:49.410Z,102773.25
2023-02-14T19:30:19.789Z,102772.34
2023-02-14T19:32:50.276Z,102774.94
2023-02-14T19:35:23.129Z,102765.72
2023-02-14T19:37:55.445Z,102769.97
2023-02-14T19:40:25.563Z,102767.19
2023-02-14T19:42:55.495Z,102766.84
2023-02-14T19:45:25.323Z,102768.19
2023-02-14T19:47:55.193Z,102764.88
2023-02-14T19:50:27.877Z,102765.94
2023-02-14T19:52:57.919Z,102757.28
2023-02-14T19:55:28.118Z,102753.41
2023-02-14T19:57:57.958Z,102753.91
2023-02-14T20:00:30.728Z,102756.53
2023-02-14T20:03:03.416Z,102753.75
2023-02-14T20:05:36.281Z,102745.56
2023-02-14T20:08:06.376Z,102754.38
2023-02-14T20:10:36.270Z,102747.84
2023-02-14T20:13:06.060Z,102745.84
2023-02-14T20:15:37.870Z,102739.28
2023-02-14T20:18:08.050Z,102746.25
2023-02-14T20:20:52.767Z,102748.84
2023-02-14T20:23:22.580Z,102743.34
2023-02-14T20:25:52.735Z,102743.03
2023-02-14T20:28:22.641Z,102742.94
2023-02-14T20:30:52.950Z,102739.91
2023-02-14T20:33:22.914Z,102729.56
2023-02-14T20:35:55.396Z,102740.28
2023-02-14T20:38:25.483Z,102737.25
2023-02-14T20:40:55.442Z,102739.00
2023-02-14T20:43:26.784Z,102733.53
2023-02-14T20:46:01.557Z,102742.91
2023-02-14T20:48:31.815Z,102743.66
2023-02-14T20:51:13.779Z,102742.72
2023-02-14T20:53:44.462Z,102733.81
2023-02-14T20:56:15.132Z,102733.19
2023-02-14T20:58:45.517Z,102741.28
2023-02-14T21:01:17.295Z,102739.44
2023-02-14T21:03:50.809Z,102751.50
2023-02-14T21:06:26.768Z,102738.28
2023-02-14T21:08:57.167Z,102749.88
2023-02-14T21:11:28.050Z,102752.00
2023-02-14T21:13:59.940Z,102744.38
2023-02-14T21:16:31.697Z,102748.84
2023-02-14T21:19:02.854Z,102746.03
2023-02-14T21:21:39.441Z,102745.69
2023-02-14T21:24:12.027Z,102747.22
2023-02-14T21:26:42.343Z,102737.38
2023-02-14T21:29:13.409Z,102743.47
2023-02-14T21:31:43.333Z,102746.91
2023-02-14T21:34:13.490Z,102740.31
2023-02-14T21:36:46.010Z,102737.50
2023-02-14T21:39:16.797Z,102741.75
2023-02-14T21:41:46.867Z,102737.88
2023-02-14T21:44:40.821Z,102731.91
2023-02-14T21:47:08.092Z,102729.66
2023-02-14T21:49:50.522Z,102730.13
2023-02-14T21:52:23.228Z,102725.44
2023-02-14T21:54:53.482Z,102719.69
2023-02-14T21:57:23.234Z,102720.13
2023-02-14T21:59:53.360Z,102721.44
2023-02-14T22:02:23.302Z,102725.66
2023-02-14T22:04:53.168Z,102720.97
2023-02-14T22:07:25.876Z,102717.91
2023-02-14T22:09:55.672Z,102714.88
2023-02-14T22:12:25.494Z,102715.31
2023-02-14T22:14:55.741Z,102713.09
2023-02-14T22:17:25.579Z,102711.47
2023-02-14T22:19:55.491Z,102718.97
2023-02-14T22:22:28.096Z,102711.91
2023-02-14T22:24:58.121Z,102704.88
2023-02-14T22:27:28.297Z,102710.75
2023-02-14T22:29:58.133Z,102706.19
2023-02-14T22:32:28.430Z,102703.25
2023-02-14T22:34:58.250Z,102702.19
2023-02-14T22:37:30.880Z,102699.50
2023-02-14T22:40:00.968Z,102705.34
2023-02-14T22:42:30.735Z,102708.50
2023-02-14T22:45:00.522Z,102702.53
2023-02-14T22:47:30.625Z,102699.50
2023-02-14T22:50:01.425Z,102696.44
2023-02-14T22:52:34.234Z,102700.66
2023-02-14T22:55:04.366Z,102701.09
2023-02-14T22:57:35.299Z,102698.88
2023-02-14T23:00:05.055Z,102695.81
2023-02-14T23:02:34.992Z,102698.16
2023-02-14T23:05:05.149Z,102696.97
2023-02-14T23:07:37.650Z,102693.94
2023-02-14T23:10:11.478Z,102687.13
2023-02-14T23:12:53.751Z,102689.22
2023-02-14T23:15:35.949Z,102688.06
2023-02-14T23:18:19.594Z,102689.56
2023-02-14T23:21:02.001Z,102690.03
2023-02-14T23:23:39.547Z,102688.25
2023-02-14T23:26:09.426Z,102684.34
2023-02-14T23:28:39.364Z,102687.28
2023-02-14T23:31:09.285Z,102685.88
2023-02-14T23:33:39.231Z,102680.94
2023-02-14T23:36:09.246Z,102687.38
2023-02-14T23:38:44.461Z,102684.09
2023-02-14T23:41:26.897Z,102680.78
2023-02-14T23:44:00.184Z,102683.94
2023-02-14T23:46:29.949Z,102674.69
2023-02-14T23:48:59.824Z,102688.38
2023-02-14T23:51:29.767Z,102685.09
2023-02-14T23:54:04.269Z,102681.34
2023-02-14T23:56:34.642Z,102685.44
2023-02-14T23:59:06.614Z,102680.06
